Time;durP1;ratioP1;P1;durP2;ratioP2;P2;SDS_P1;SDS_P2;PMS_P1;PMS_P2;Temp;Humidity;BMP_temperature;BMP_pressure;BME280_temperature;BME280_humidity;BME280_pressure;Samples;Min_cycle;Max_cycle;Signal;HPM_P1;HPM_P2
2021/03/09 00:00:25;;;;;;;32.93;16.10;;;5.80;99.90;;;;;;5003441;28;20757;-76
2021/03/09 00:03:10;;;;;;;28.63;15.23;;;5.80;99.90;;;;;;5008126;28;20282;-76
2021/03/09 00:05:55;;;;;;;29.53;14.40;;;5.70;99.90;;;;;;5007997;28;20612;-77
2021/03/09 00:08:39;;;;;;;25.93;13.20;;;5.70;99.90;;;;;;5009615;28;20228;-76
2021/03/09 00:11:24;;;;;;;27.13;13.73;;;5.70;99.90;;;;;;5008998;28;20204;-76
2021/03/09 00:14:09;;;;;;;23.43;13.37;;;5.70;99.90;;;;;;5004645;28;20223;-77
2021/03/09 00:16:55;;;;;;;27.27;13.93;;;5.60;99.90;;;;;;5009758;28;20278;-77
2021/03/09 00:19:39;;;;;;;25.33;13.03;;;5.60;99.90;;;;;;5000249;28;20220;-77
2021/03/09 00:22:24;;;;;;;26.80;13.30;;;5.60;99.90;;;;;;5013278;28;20212;-77
2021/03/09 00:25:10;;;;;;;25.60;12.90;;;5.60;99.90;;;;;;5010867;28;20223;-77
2021/03/09 00:27:55;;;;;;;24.00;12.97;;;5.50;99.90;;;;;;5006555;28;20228;-77
2021/03/09 00:30:40;;;;;;;23.07;12.87;;;5.50;99.90;;;;;;5010885;28;20200;-77
2021/03/09 00:33:25;;;;;;;22.00;10.20;;;5.50;99.90;;;;;;5008918;28;20255;-77
2021/03/09 00:36:10;;;;;;;33.50;16.33;;;5.40;99.90;;;;;;5011255;28;20235;-77
2021/03/09 00:38:54;;;;;;;26.20;13.33;;;5.40;99.90;;;;;;5017887;28;20247;-77
2021/03/09 00:41:39;;;;;;;29.37;15.77;;;5.40;99.90;;;;;;5006024;28;20208;-77
2021/03/09 00:44:24;;;;;;;30.30;17.77;;;5.30;99.90;;;;;;5009325;28;20259;-77
2021/03/09 00:47:09;;;;;;;32.63;17.17;;;5.30;99.90;;;;;;5014247;28;20750;-76
2021/03/09 00:49:55;;;;;;;32.63;18.43;;;5.30;99.90;;;;;;5013312;28;20208;-76
2021/03/09 00:52:39;;;;;;;30.47;15.23;;;5.20;99.90;;;;;;5003732;28;20235;-76
2021/03/09 00:55:24;;;;;;;35.73;19.87;;;5.20;99.90;;;;;;5014814;28;20231;-76
2021/03/09 00:58:08;;;;;;;38.50;18.90;;;5.20;99.90;;;;;;5012091;28;20216;-76
2021/03/09 01:00:53;;;;;;;34.83;17.57;;;5.10;99.90;;;;;;5005190;28;20205;-76
2021/03/09 01:03:38;;;;;;;38.10;20.33;;;5.10;99.90;;;;;;5010777;28;20359;-76
2021/03/09 01:06:24;;;;;;;36.93;19.57;;;5.10;99.90;;;;;;5005347;28;20731;-76
2021/03/09 01:09:08;;;;;;;37.83;20.07;;;5.10;99.90;;;;;;5006794;28;20216;-77
2021/03/09 01:11:53;;;;;;;41.83;21.07;;;5.00;99.90;;;;;;5006186;28;20311;-76
2021/03/09 01:14:37;;;;;;;39.70;21.60;;;5.00;99.90;;;;;;5007860;28;20212;-77
2021/03/09 01:17:22;;;;;;;41.40;21.97;;;5.00;99.90;;;;;;4999158;28;20513;-77
2021/03/09 01:20:08;;;;;;;46.53;29.07;;;5.00;99.90;;;;;;5009888;28;20298;-77
2021/03/09 01:22:54;;;;;;;39.70;22.27;;;5.00;99.90;;;;;;5014111;28;20212;-77
2021/03/09 01:25:38;;;;;;;43.07;23.27;;;5.00;99.90;;;;;;4998893;28;20211;-77
2021/03/09 01:28:23;;;;;;;41.90;21.43;;;5.10;99.90;;;;;;5009091;28;20223;-77
2021/03/09 01:31:08;;;;;;;43.20;23.20;;;5.00;99.90;;;;;;5013823;28;20208;-77
2021/03/09 01:33:53;;;;;;;43.30;24.90;;;4.90;99.90;;;;;;5013559;28;20210;-77
2021/03/09 01:36:38;;;;;;;38.30;20.43;;;4.90;99.90;;;;;;5011875;28;20267;-77
2021/03/09 01:39:24;;;;;;;45.43;25.10;;;4.90;99.90;;;;;;5009328;28;20785;-78
2021/03/09 01:42:09;;;;;;;46.13;25.53;;;4.90;99.90;;;;;;5013602;28;20212;-78
2021/03/09 01:44:54;;;;;;;45.23;25.87;;;4.90;99.90;;;;;;5012786;28;20263;-78
2021/03/09 01:47:42;;;;;;;51.40;25.87;;;4.90;99.90;;;;;;5016592;28;20267;-78
2021/03/09 01:50:28;;;;;;;52.17;30.50;;;4.90;99.90;;;;;;5010652;28;20252;-78
2021/03/09 01:53:14;;;;;;;51.70;26.57;;;4.90;99.90;;;;;;5010322;28;20216;-79
2021/03/09 01:56:00;;;;;;;50.73;26.90;;;4.90;99.90;;;;;;5013869;28;20227;-78
2021/03/09 01:58:48;;;;;;;52.23;27.33;;;4.90;99.90;;;;;;5008499;28;20281;-79
2021/03/09 02:01:34;;;;;;;48.10;23.33;;;4.90;99.90;;;;;;5003970;28;20208;-79
2021/03/09 02:04:19;;;;;;;48.07;26.83;;;4.90;99.90;;;;;;5016977;28;20259;-79
2021/03/09 02:07:04;;;;;;;49.83;27.47;;;4.90;99.90;;;;;;5018467;28;20296;-80
2021/03/09 02:09:49;;;;;;;53.27;28.17;;;4.90;99.90;;;;;;5016351;28;20201;-79
2021/03/09 02:12:46;;;;;;;60.80;32.70;;;4.90;99.90;;;;;;5012745;28;20204;-79
2021/03/09 02:15:37;;;;;;;61.93;29.87;;;4.90;99.90;;;;;;5007041;28;20688;-79
2021/03/09 02:18:34;;;;;;;50.73;25.63;;;4.80;99.90;;;;;;5013953;28;20216;-79
2021/03/09 02:21:44;;;;;;;58.77;33.37;;;4.90;99.90;;;;;;5016763;28;20566;-78
2021/03/09 02:24:49;;;;;;;67.40;36.67;;;4.90;99.90;;;;;;5015332;28;20208;-79
2021/03/09 02:27:50;;;;;;;59.87;33.10;;;4.80;99.90;;;;;;5026974;28;20235;-79
2021/03/09 02:30:39;;;;;;;65.40;32.87;;;4.80;99.90;;;;;;5023353;28;20200;-78
2021/03/09 02:33:29;;;;;;;55.40;29.57;;;4.80;99.90;;;;;;5020210;28;20208;-79
2021/03/09 02:36:17;;;;;;;62.47;30.17;;;4.80;99.90;;;;;;5012726;28;20220;-78
2021/03/09 02:39:05;;;;;;;61.37;34.10;;;4.80;99.90;;;;;;5012788;28;20200;-78
2021/03/09 02:41:52;;;;;;;75.13;39.43;;;4.80;99.90;;;;;;5019969;28;20247;-79
2021/03/09 02:44:40;;;;;;;73.50;35.60;;;4.80;99.90;;;;;;5018889;28;20235;-79
2021/03/09 02:47:28;;;;;;;65.30;32.13;;;4.80;99.90;;;;;;5019853;28;20248;-78
2021/03/09 02:50:14;;;;;;;71.90;35.13;;;4.70;99.90;;;;;;5013925;28;20251;-78
2021/03/09 02:53:06;;;;;;;84.93;43.13;;;4.80;99.90;;;;;;5014125;28;20212;-79
2021/03/09 02:55:52;;;;;;;84.17;42.80;;;4.70;99.90;;;;;;5015033;28;20738;-78
2021/03/09 02:58:39;;;;;;;70.10;37.03;;;4.80;99.90;;;;;;5006460;28;20215;-78
2021/03/09 03:01:26;;;;;;;74.20;40.00;;;4.80;99.90;;;;;;5013025;28;20288;-79
2021/03/09 03:04:16;;;;;;;79.83;38.60;;;4.80;99.90;;;;;;5014461;28;20271;-78
2021/03/09 03:07:02;;;;;;;64.83;35.43;;;4.80;99.90;;;;;;5007206;28;20228;-78
2021/03/09 03:09:48;;;;;;;79.07;37.93;;;4.80;99.90;;;;;;5009773;28;20251;-78
2021/03/09 03:12:33;;;;;;;79.00;38.87;;;4.80;99.90;;;;;;5009704;28;20274;-79
2021/03/09 03:15:21;;;;;;;69.97;36.10;;;4.80;99.90;;;;;;5014931;28;20631;-79
2021/03/09 03:18:09;;;;;;;86.20;48.30;;;4.80;99.90;;;;;;5013827;28;20216;-78
2021/03/09 03:20:55;;;;;;;84.40;40.77;;;4.80;99.90;;;;;;5008981;28;20211;-79
2021/03/09 03:23:40;;;;;;;70.33;35.43;;;4.80;99.90;;;;;;5016548;28;20294;-79
2021/03/09 03:26:26;;;;;;;88.53;43.93;;;4.80;99.90;;;;;;5017854;28;20715;-79
2021/03/09 03:29:12;;;;;;;70.90;37.97;;;4.80;99.90;;;;;;5004918;28;20589;-79
2021/03/09 03:31:57;;;;;;;82.50;43.13;;;4.80;99.90;;;;;;5010457;28;20200;-79
2021/03/09 03:34:44;;;;;;;83.53;40.40;;;4.80;99.90;;;;;;5017050;28;20204;-79
2021/03/09 03:37:30;;;;;;;79.43;40.07;;;4.90;99.90;;;;;;5013916;28;20227;-79
2021/03/09 03:40:17;;;;;;;99.87;48.73;;;4.80;99.90;;;;;;5011438;28;20303;-79
2021/03/09 03:43:02;;;;;;;90.53;45.10;;;4.80;99.90;;;;;;5014006;28;20599;-79
2021/03/09 03:45:46;;;;;;;91.57;45.33;;;4.80;99.90;;;;;;5013384;28;20203;-79
2021/03/09 03:48:33;;;;;;;88.47;44.33;;;4.80;99.90;;;;;;5000766;28;20220;-79
2021/03/09 03:51:22;;;;;;;82.23;38.80;;;4.80;99.90;;;;;;5003744;28;20263;-79
2021/03/09 03:54:18;;;;;;;82.97;38.43;;;4.80;99.90;;;;;;5014293;28;20195;-79
2021/03/09 03:57:08;;;;;;;90.93;43.30;;;4.80;99.90;;;;;;5005316;28;20221;-79
2021/03/09 03:59:58;;;;;;;79.03;38.93;;;4.80;99.90;;;;;;5004860;28;20220;-78
2021/03/09 04:02:44;;;;;;;88.10;43.53;;;4.80;99.90;;;;;;5014090;28;20216;-79
2021/03/09 04:05:30;;;;;;;87.80;43.90;;;4.90;99.90;;;;;;5013808;28;20236;-79
2021/03/09 04:08:16;;;;;;;87.60;41.33;;;4.90;99.90;;;;;;5000933;28;20216;-79
2021/03/09 04:11:03;;;;;;;80.33;40.47;;;4.90;99.90;;;;;;5004109;28;20303;-79
2021/03/09 04:13:49;;;;;;;80.53;39.50;;;4.90;99.90;;;;;;5004659;28;20267;-78
2021/03/09 04:16:36;;;;;;;92.30;43.63;;;4.90;99.90;;;;;;5014196;28;20347;-79
2021/03/09 04:19:23;;;;;;;90.30;40.73;;;4.90;99.90;;;;;;4995377;28;20241;-79
2021/03/09 04:22:09;;;;;;;78.10;38.20;;;4.90;99.90;;;;;;5008376;28;20564;-78
2021/03/09 04:24:55;;;;;;;80.03;37.87;;;4.90;99.90;;;;;;5010984;28;20240;-79
2021/03/09 04:27:41;;;;;;;77.97;40.90;;;4.90;99.90;;;;;;5001618;28;20301;-78
2021/03/09 04:30:27;;;;;;;75.10;37.97;;;4.90;99.90;;;;;;5010510;28;20385;-78
2021/03/09 04:33:12;;;;;;;60.13;28.90;;;4.90;99.90;;;;;;5011600;28;20263;-78
2021/03/09 04:35:57;;;;;;;62.77;34.10;;;4.90;99.90;;;;;;5011501;28;20227;-79
2021/03/09 04:38:42;;;;;;;77.77;41.07;;;4.90;99.90;;;;;;5019553;28;20563;-79
2021/03/09 04:41:27;;;;;;;71.40;36.17;;;4.90;99.90;;;;;;5009112;28;20235;-79
2021/03/09 04:44:13;;;;;;;67.70;32.43;;;4.90;99.90;;;;;;5009120;28;20598;-79
2021/03/09 04:46:58;;;;;;;78.07;39.43;;;4.90;99.90;;;;;;5015164;28;20225;-79
2021/03/09 04:49:44;;;;;;;79.43;40.60;;;4.90;99.90;;;;;;5011793;28;20215;-79
2021/03/09 04:52:29;;;;;;;72.27;35.40;;;4.90;99.90;;;;;;5012308;28;20216;-79
2021/03/09 04:55:17;;;;;;;82.57;40.37;;;4.90;99.90;;;;;;5009532;28;20217;-79
2021/03/09 04:58:02;;;;;;;76.47;37.50;;;4.90;99.90;;;;;;5013178;28;20247;-77
2021/03/09 05:00:47;;;;;;;88.87;42.70;;;5.00;99.90;;;;;;5028751;28;20212;-78
2021/03/09 05:03:33;;;;;;;93.67;47.40;;;5.00;99.90;;;;;;5031273;28;20280;-79
2021/03/09 05:06:18;;;;;;;90.90;45.57;;;5.00;99.90;;;;;;5028033;28;20265;-79
2021/03/09 05:09:03;;;;;;;82.17;40.60;;;5.00;99.90;;;;;;5032248;28;20228;-78
2021/03/09 05:11:49;;;;;;;91.07;43.07;;;5.00;99.90;;;;;;5026617;28;20200;-78
2021/03/09 05:14:33;;;;;;;88.43;42.17;;;5.00;99.90;;;;;;5035181;28;20249;-80
2021/03/09 05:17:19;;;;;;;91.00;46.47;;;5.00;99.90;;;;;;5018453;28;20251;-79
2021/03/09 05:20:05;;;;;;;92.37;46.93;;;5.00;99.90;;;;;;5015395;28;20296;-79
2021/03/09 05:22:50;;;;;;;95.67;45.67;;;5.00;99.90;;;;;;5010916;28;20522;-79
2021/03/09 05:25:35;;;;;;;108.50;47.47;;;5.00;99.90;;;;;;5017045;28;20224;-79
2021/03/09 05:28:20;;;;;;;95.43;43.23;;;5.00;99.90;;;;;;5013960;28;20293;-78
2021/03/09 05:31:05;;;;;;;40.53;20.83;;;5.00;99.90;;;;;;5013998;28;20208;-78
2021/03/09 05:33:51;;;;;;;95.23;45.10;;;5.00;99.90;;;;;;5013747;28;20228;-79
2021/03/09 05:36:36;;;;;;;94.70;47.10;;;5.00;99.90;;;;;;5017115;28;20236;-79
2021/03/09 05:39:21;;;;;;;102.87;48.27;;;5.00;99.90;;;;;;5016679;28;20224;-79
2021/03/09 05:42:07;;;;;;;93.23;43.53;;;5.00;99.90;;;;;;5015108;28;20215;-79
2021/03/09 05:44:52;;;;;;;87.87;41.43;;;5.00;99.90;;;;;;5014384;28;20212;-79
2021/03/09 05:47:38;;;;;;;97.17;45.50;;;5.00;99.90;;;;;;4997175;28;20229;-79
2021/03/09 05:50:23;;;;;;;80.40;37.03;;;5.00;99.90;;;;;;5010757;28;20212;-78
2021/03/09 05:53:08;;;;;;;82.70;39.50;;;5.00;99.90;;;;;;5017606;28;20295;-79
2021/03/09 05:55:53;;;;;;;93.87;44.90;;;5.00;99.90;;;;;;5015306;28;20654;-79
2021/03/09 05:58:38;;;;;;;87.17;42.63;;;5.00;99.90;;;;;;5015955;28;20223;-78
2021/03/09 06:01:23;;;;;;;84.50;41.00;;;5.10;99.90;;;;;;5014426;28;20220;-78
2021/03/09 06:04:08;;;;;;;68.73;35.63;;;5.10;99.90;;;;;;5011768;28;20224;-78
2021/03/09 06:06:54;;;;;;;91.50;44.33;;;5.10;99.90;;;;;;5012842;28;20231;-78
2021/03/09 06:09:40;;;;;;;96.57;44.33;;;5.10;99.90;;;;;;5001496;28;20260;-78
2021/03/09 06:12:27;;;;;;;85.60;40.20;;;5.10;99.90;;;;;;5009743;28;20208;-78
2021/03/09 06:15:12;;;;;;;80.17;41.80;;;5.10;99.90;;;;;;5014988;28;20196;-79
2021/03/09 06:17:58;;;;;;;84.07;43.67;;;5.10;99.90;;;;;;5025139;28;20240;-80
2021/03/09 06:20:43;;;;;;;89.60;43.07;;;5.10;99.90;;;;;;5022444;28;20208;-79
2021/03/09 06:23:28;;;;;;;92.97;46.17;;;5.10;99.90;;;;;;5019787;28;20568;-80
2021/03/09 06:26:34;;;;;;;94.27;43.17;;;5.20;99.90;;;;;;5026755;28;20291;-79
2021/03/09 06:29:19;;;;;;;90.70;45.63;;;5.20;99.90;;;;;;5022849;28;20263;-79
2021/03/09 06:32:04;;;;;;;84.53;40.70;;;5.20;99.90;;;;;;5020541;28;20208;-79
2021/03/09 06:34:50;;;;;;;70.67;35.57;;;5.20;99.90;;;;;;5015786;28;20228;-79
2021/03/09 06:37:35;;;;;;;91.47;44.57;;;5.20;99.90;;;;;;5020167;28;20303;-79
2021/03/09 06:40:21;;;;;;;98.80;45.17;;;5.20;99.90;;;;;;5016347;28;20215;-79
2021/03/09 06:43:14;;;;;;;93.83;45.13;;;5.20;99.90;;;;;;5014844;28;20587;-79
2021/03/09 06:46:14;;;;;;;56.27;29.47;;;5.20;99.90;;;;;;5015740;28;20230;-79
2021/03/09 06:49:02;;;;;;;85.43;41.03;;;5.20;99.90;;;;;;5015961;28;20228;-78
2021/03/09 06:51:47;;;;;;;99.17;44.50;;;5.20;99.90;;;;;;5019842;28;20257;-79
2021/03/09 06:54:42;;;;;;;97.10;45.20;;;5.20;99.90;;;;;;5010163;28;20784;-79
2021/03/09 06:57:36;;;;;;;95.40;42.77;;;5.30;99.90;;;;;;5011220;28;20247;-79
2021/03/09 07:00:26;;;;;;;99.70;45.37;;;5.30;99.90;;;;;;5014124;28;20216;-78
2021/03/09 07:03:31;;;;;;;115.37;54.23;;;5.30;99.90;;;;;;5015858;28;20205;-80
2021/03/09 07:06:16;;;;;;;105.07;51.40;;;5.30;99.90;;;;;;5013195;28;20247;-79
2021/03/09 07:09:09;;;;;;;119.83;56.87;;;5.30;99.90;;;;;;5016878;28;20224;-79
2021/03/09 07:11:55;;;;;;;114.00;51.00;;;5.40;99.90;;;;;;5012027;28;20200;-79
2021/03/09 07:14:42;;;;;;;116.90;51.00;;;5.30;99.90;;;;;;5016018;28;20288;-80
2021/03/09 07:17:29;;;;;;;131.97;60.67;;;5.30;99.90;;;;;;5008099;28;20251;-79
2021/03/09 07:20:15;;;;;;;102.13;43.87;;;5.40;99.90;;;;;;5011923;28;20216;-79
2021/03/09 07:23:02;;;;;;;127.03;55.77;;;5.40;99.90;;;;;;5016295;28;20211;-79
2021/03/09 07:25:50;;;;;;;133.60;57.90;;;5.40;99.90;;;;;;5012930;28;20236;-79
2021/03/09 07:28:41;;;;;;;119.50;49.90;;;5.40;99.90;;;;;;5004554;28;20247;-80
2021/03/09 07:31:27;;;;;;;133.50;56.20;;;5.40;99.90;;;;;;5016982;28;20207;-80
2021/03/09 07:34:12;;;;;;;138.10;56.40;;;5.50;99.90;;;;;;5017269;28;20191;-81
2021/03/09 07:36:57;;;;;;;138.77;59.90;;;5.50;99.90;;;;;;5005970;28;20651;-80
2021/03/09 07:39:43;;;;;;;135.13;57.60;;;5.50;99.90;;;;;;5014861;28;20343;-80
2021/03/09 07:42:27;;;;;;;131.33;56.33;;;5.50;99.90;;;;;;5004528;28;20232;-79
2021/03/09 07:45:14;;;;;;;140.03;58.90;;;5.50;99.90;;;;;;5014415;28;20220;-80
2021/03/09 07:48:03;;;;;;;153.30;65.67;;;5.60;99.90;;;;;;5006829;28;20200;-79
2021/03/09 07:50:49;;;;;;;159.57;64.77;;;5.60;99.90;;;;;;5022928;28;20208;-80
2021/03/09 07:53:34;;;;;;;142.67;59.67;;;5.60;99.90;;;;;;5034310;28;20199;-79
2021/03/09 07:56:18;;;;;;;137.97;59.70;;;5.70;99.90;;;;;;5008949;28;20283;-79
2021/03/09 07:59:05;;;;;;;135.87;54.57;;;5.70;99.90;;;;;;5016685;28;20208;-80
2021/03/09 08:01:51;;;;;;;124.37;52.03;;;5.80;99.90;;;;;;5017442;28;20296;-79
2021/03/09 08:04:56;;;;;;;111.70;49.37;;;5.80;99.90;;;;;;5000075;28;20232;-80
2021/03/09 08:07:57;;;;;;;100.50;47.20;;;5.90;99.90;;;;;;5017050;28;20226;-80
2021/03/09 08:10:44;;;;;;;84.83;40.60;;;5.90;99.90;;;;;;5013817;28;20212;-80
2021/03/09 08:13:30;;;;;;;88.40;40.00;;;5.90;99.90;;;;;;5006604;28;20216;-80
2021/03/09 08:16:30;;;;;;;99.47;43.73;;;6.00;99.90;;;;;;5016255;28;20220;-80
2021/03/09 08:19:39;;;;;;;90.37;39.10;;;6.00;99.90;;;;;;5007558;28;20262;-79
2021/03/09 08:22:37;;;;;;;82.03;33.60;;;6.10;99.90;;;;;;5015684;28;20207;-80
2021/03/09 08:25:37;;;;;;;67.77;30.70;;;6.20;99.90;;;;;;5011352;28;20232;-80
2021/03/09 08:28:33;;;;;;;72.13;32.43;;;6.20;99.90;;;;;;5015192;28;20557;-80
2021/03/09 08:31:26;;;;;;;69.57;32.73;;;6.20;99.90;;;;;;5015429;28;20339;-80
2021/03/09 08:34:24;;;;;;;58.57;27.50;;;6.30;99.90;;;;;;5006681;28;20208;-77
2021/03/09 08:37:32;;;;;;;58.97;26.87;;;6.30;99.90;;;;;;5014364;28;20228;-80
2021/03/09 08:40:19;;;;;;;48.77;25.07;;;6.40;99.90;;;;;;5014089;28;20239;-80
2021/03/09 08:43:13;;;;;;;58.00;27.23;;;6.40;99.90;;;;;;5015817;28;20220;-79
2021/03/09 08:45:59;;;;;;;55.53;26.70;;;6.50;99.90;;;;;;5003910;28;20228;-80
2021/03/09 08:48:55;;;;;;;52.07;27.13;;;6.50;99.90;;;;;;5002302;28;20212;-80
2021/03/09 08:51:40;;;;;;;47.57;25.87;;;6.60;99.90;;;;;;5013345;28;20235;-80
2021/03/09 08:54:32;;;;;;;52.70;28.17;;;6.60;99.90;;;;;;5003787;28;20224;-79
2021/03/09 08:57:25;;;;;;;55.00;26.13;;;6.60;99.90;;;;;;5012945;28;20278;-80
2021/03/09 09:00:11;;;;;;;58.50;27.90;;;6.70;99.90;;;;;;5010014;28;20207;-79
2021/03/09 09:02:56;;;;;;;47.47;24.10;;;6.80;99.90;;;;;;5008990;28;20208;-80
2021/03/09 09:05:41;;;;;;;52.80;26.73;;;6.90;99.90;;;;;;5009165;28;20599;-79
2021/03/09 09:08:26;;;;;;;47.70;22.37;;;6.90;99.90;;;;;;5015077;28;20208;-79
2021/03/09 09:11:11;;;;;;;45.47;23.47;;;7.00;99.90;;;;;;5008633;28;20204;-79
2021/03/09 09:13:56;;;;;;;52.03;25.23;;;7.00;99.90;;;;;;5017096;28;20684;-79
2021/03/09 09:16:40;;;;;;;50.80;24.00;;;7.10;99.90;;;;;;5015597;28;20595;-79
2021/03/09 09:19:25;;;;;;;40.10;21.50;;;7.10;99.90;;;;;;5007395;28;20217;-79
2021/03/09 09:22:10;;;;;;;40.40;20.13;;;7.20;99.90;;;;;;5014271;28;20256;-79
2021/03/09 09:24:57;;;;;;;35.83;19.53;;;7.30;99.90;;;;;;5017345;28;20711;-80
2021/03/09 09:27:45;;;;;;;33.50;19.07;;;7.40;99.90;;;;;;5010329;28;20271;-80
2021/03/09 09:30:36;;;;;;;29.00;16.00;;;7.50;99.90;;;;;;5031614;28;20227;-80
2021/03/09 09:33:22;;;;;;;26.97;15.03;;;7.60;99.90;;;;;;5035401;28;20216;-79
2021/03/09 09:36:06;;;;;;;31.00;14.30;;;7.70;99.90;;;;;;5024842;28;20224;-80
2021/03/09 09:38:52;;;;;;;25.17;14.87;;;7.70;99.90;;;;;;5032349;28;20204;-79
2021/03/09 09:41:37;;;;;;;25.17;12.00;;;7.70;99.90;;;;;;5033319;28;20235;-80
2021/03/09 09:44:22;;;;;;;14.80;9.80;;;7.80;99.90;;;;;;5028102;28;20310;-80
2021/03/09 09:47:09;;;;;;;18.27;9.67;;;7.90;99.90;;;;;;5022896;28;20723;-80
2021/03/09 09:49:54;;;;;;;18.83;9.00;;;8.00;99.90;;;;;;5025468;28;20265;-80
2021/03/09 09:52:39;;;;;;;16.07;9.43;;;8.10;99.90;;;;;;5019080;28;20227;-81
2021/03/09 09:55:26;;;;;;;12.07;7.87;;;8.10;99.90;;;;;;5028360;28;20239;-79
2021/03/09 09:58:11;;;;;;;13.10;7.73;;;8.20;99.90;;;;;;5030506;28;20207;-80
2021/03/09 10:00:56;;;;;;;12.50;7.27;;;8.30;99.90;;;;;;5033161;28;20209;-79
2021/03/09 10:04:00;;;;;;;11.17;6.40;;;8.40;99.90;;;;;;5030009;28;20231;-79
2021/03/09 10:06:46;;;;;;;11.13;6.23;;;8.50;99.90;;;;;;5023945;28;20220;-79
2021/03/09 10:09:31;;;;;;;11.07;6.00;;;8.50;99.90;;;;;;5019729;28;20259;-80
2021/03/09 10:12:32;;;;;;;15.20;5.80;;;8.60;99.90;;;;;;5017142;28;20204;-79
2021/03/09 10:15:18;;;;;;;6.80;4.80;;;8.60;99.90;;;;;;5009523;28;20196;-79
2021/03/09 10:18:05;;;;;;;10.73;5.70;;;8.50;99.90;;;;;;5022936;28;20285;-79
2021/03/09 10:20:59;;;;;;;5.70;4.43;;;8.60;99.90;;;;;;5011804;28;20208;-80
2021/03/09 10:23:55;;;;;;;8.10;4.80;;;8.60;99.90;;;;;;5017434;28;20208;-79
2021/03/09 10:26:41;;;;;;;10.07;5.40;;;8.60;99.90;;;;;;5018778;28;20286;-79
2021/03/09 10:29:28;;;;;;;6.83;4.87;;;8.60;99.90;;;;;;5012506;28;20247;-81
2021/03/09 10:32:15;;;;;;;8.90;5.20;;;8.60;99.90;;;;;;5022016;28;20211;-80
2021/03/09 10:35:07;;;;;;;10.20;5.50;;;8.70;99.90;;;;;;5010181;28;20610;-79
2021/03/09 10:37:52;;;;;;;9.07;5.77;;;8.70;99.90;;;;;;5031331;28;20213;-79
2021/03/09 10:40:37;;;;;;;7.37;5.77;;;8.70;99.90;;;;;;5028286;28;20235;-81
2021/03/09 10:43:41;;;;;;;7.57;6.10;;;8.90;99.90;;;;;;5022917;28;20255;-80
2021/03/09 10:46:26;;;;;;;7.03;5.53;;;8.90;99.90;;;;;;5013108;28;20235;-80
2021/03/09 10:49:11;;;;;;;6.53;5.40;;;9.00;99.90;;;;;;5008879;28;20260;-81
2021/03/09 10:52:01;;;;;;;7.80;5.60;;;9.10;99.90;;;;;;5020647;28;20204;-79
2021/03/09 10:54:46;;;;;;;9.77;5.97;;;9.20;99.90;;;;;;5011592;28;20743;-80
2021/03/09 10:57:31;;;;;;;5.90;4.43;;;9.30;99.90;;;;;;5019472;28;20248;-79
2021/03/09 11:00:18;;;;;;;6.23;4.40;;;9.40;99.90;;;;;;5020296;28;20227;-80
2021/03/09 11:03:03;;;;;;;7.17;4.53;;;9.50;99.90;;;;;;5012852;28;20264;-80
2021/03/09 11:05:48;;;;;;;6.20;4.23;;;9.60;99.90;;;;;;5014314;28;20791;-79
2021/03/09 11:08:33;;;;;;;5.83;3.93;;;9.60;99.90;;;;;;5019534;28;20276;-80
2021/03/09 11:11:18;;;;;;;4.90;4.03;;;9.70;99.90;;;;;;5006564;28;20216;-80
2021/03/09 11:14:03;;;;;;;5.03;3.80;;;9.70;99.90;;;;;;5018810;28;20232;-80
2021/03/09 11:16:48;;;;;;;5.63;3.70;;;9.60;99.90;;;;;;5020923;28;20227;-79
2021/03/09 11:19:34;;;;;;;4.20;3.40;;;9.60;99.90;;;;;;5017639;28;20254;-81
2021/03/09 11:22:19;;;;;;;4.20;3.80;;;9.60;99.90;;;;;;5018130;28;20696;-81
2021/03/09 11:25:06;;;;;;;7.30;3.70;;;9.50;99.90;;;;;;5015176;28;20208;-80
2021/03/09 11:27:51;;;;;;;5.33;3.77;;;9.50;99.90;;;;;;5015669;28;20805;-78
2021/03/09 11:30:35;;;;;;;8.07;4.20;;;9.50;99.90;;;;;;5016492;28;20209;-79
2021/03/09 11:33:20;;;;;;;11.87;4.67;;;9.40;99.90;;;;;;5019757;28;20704;-79
2021/03/09 11:36:06;;;;;;;5.80;4.33;;;9.40;99.90;;;;;;5019144;28;20235;-80
2021/03/09 11:38:52;;;;;;;7.73;4.10;;;9.30;99.90;;;;;;5019475;28;20263;-80
2021/03/09 11:41:37;;;;;;;5.47;3.60;;;9.30;99.90;;;;;;5017687;28;20216;-79
2021/03/09 11:44:23;;;;;;;5.73;4.00;;;9.20;99.90;;;;;;5017903;28;20751;-81
2021/03/09 11:47:08;;;;;;;6.83;4.97;;;9.20;99.90;;;;;;5016831;28;20255;-78
2021/03/09 11:49:53;;;;;;;9.37;5.03;;;9.10;99.90;;;;;;5015512;28;20720;-79
2021/03/09 11:52:39;;;;;;;5.90;5.20;;;9.10;99.90;;;;;;5028926;28;20459;-79
2021/03/09 11:55:24;;;;;;;9.23;5.40;;;9.00;99.90;;;;;;5019223;28;20254;-82
2021/03/09 11:58:09;;;;;;;8.60;6.10;;;9.00;99.90;;;;;;5015785;28;20199;-79
2021/03/09 12:00:54;;;;;;;8.60;5.57;;;9.00;99.90;;;;;;5019695;28;20227;-80
2021/03/09 12:03:39;;;;;;;10.50;7.20;;;8.90;99.90;;;;;;5019455;28;20279;-78
2021/03/09 12:06:24;;;;;;;10.10;7.20;;;8.90;99.90;;;;;;5013973;28;20243;-83
2021/03/09 12:09:09;;;;;;;8.07;6.93;;;8.90;99.90;;;;;;5013215;28;20569;-80
2021/03/09 12:11:57;;;;;;;8.47;5.23;;;8.80;99.90;;;;;;5015907;28;20312;-79
2021/03/09 12:14:43;;;;;;;9.83;6.03;;;9.00;99.90;;;;;;5014881;28;20335;-79
2021/03/09 12:17:28;;;;;;;7.53;4.50;;;9.00;99.90;;;;;;5003824;28;20260;-80
2021/03/09 12:20:14;;;;;;;7.67;4.00;;;9.10;99.90;;;;;;5019575;28;20232;-78
2021/03/09 12:22:58;;;;;;;3.20;2.77;;;9.10;99.90;;;;;;5030111;28;20189;-77
2021/03/09 12:25:43;;;;;;;5.43;2.63;;;9.10;99.90;;;;;;5031786;28;20276;-78
2021/03/09 12:28:28;;;;;;;3.00;2.00;;;9.20;99.90;;;;;;5024937;28;20205;-77
2021/03/09 12:31:14;;;;;;;4.67;2.23;;;9.10;99.90;;;;;;5024680;28;20228;-79
2021/03/09 12:33:59;;;;;;;4.90;1.73;;;9.20;99.90;;;;;;5013797;28;20692;-80
2021/03/09 12:36:44;;;;;;;5.27;2.00;;;9.20;99.90;;;;;;5016336;28;20270;-80
2021/03/09 12:39:29;;;;;;;3.13;2.10;;;9.20;99.90;;;;;;5013415;28;20209;-79
2021/03/09 12:42:13;;;;;;;1.73;1.40;;;9.20;99.90;;;;;;5013687;28;20596;-80
2021/03/09 12:44:58;;;;;;;3.47;1.30;;;9.20;99.90;;;;;;5013941;28;20251;-78
2021/03/09 12:47:43;;;;;;;1.77;1.53;;;9.20;99.90;;;;;;5015895;28;20278;-80
2021/03/09 12:50:28;;;;;;;1.70;1.30;;;9.30;99.90;;;;;;5018829;28;20212;-80
2021/03/09 12:53:13;;;;;;;1.57;1.00;;;9.30;99.90;;;;;;5012945;28;20576;-79
2021/03/09 12:55:58;;;;;;;2.97;1.43;;;9.30;99.90;;;;;;5009352;28;20219;-79
2021/03/09 12:58:42;;;;;;;2.40;1.60;;;9.40;99.90;;;;;;4999613;28;20209;-79
2021/03/09 13:01:30;;;;;;;4.87;1.70;;;9.50;99.90;;;;;;5008961;28;20260;-79
2021/03/09 13:04:16;;;;;;;2.33;1.50;;;9.60;99.90;;;;;;5011182;28;20224;-79
2021/03/09 13:07:01;;;;;;;4.00;1.87;;;9.70;99.90;;;;;;5016571;28;20223;-79
2021/03/09 13:09:46;;;;;;;2.27;1.70;;;9.70;99.90;;;;;;5003311;28;20211;-81
2021/03/09 13:12:31;;;;;;;3.90;2.40;;;9.80;99.90;;;;;;5014158;28;20228;-81
2021/03/09 13:15:17;;;;;;;2.73;2.20;;;9.90;99.90;;;;;;5011282;28;20238;-80
2021/03/09 13:18:02;;;;;;;3.50;2.30;;;10.00;99.90;;;;;;5013785;28;20275;-79
2021/03/09 13:20:48;;;;;;;4.20;3.20;;;10.00;99.90;;;;;;5015321;28;20231;-79
2021/03/09 13:23:32;;;;;;;2.23;2.03;;;10.10;99.90;;;;;;5026977;28;20215;-78
2021/03/09 13:26:17;;;;;;;2.30;2.10;;;10.20;99.90;;;;;;5023689;28;20328;-80
2021/03/09 13:29:03;;;;;;;3.47;2.50;;;10.20;99.90;;;;;;5013078;28;20723;-79
2021/03/09 13:31:48;;;;;;;2.70;1.80;;;10.30;99.90;;;;;;5011901;28;20208;-80
2021/03/09 13:34:32;;;;;;;3.30;1.80;;;10.30;99.90;;;;;;5013164;28;20313;-79
2021/03/09 13:37:18;;;;;;;5.07;2.43;;;10.30;99.90;;;;;;5010506;28;20281;-78
2021/03/09 13:40:05;;;;;;;3.63;1.90;;;10.20;99.90;;;;;;5009756;28;20579;-78
2021/03/09 13:42:50;;;;;;;8.63;5.33;;;10.20;99.90;;;;;;5015922;28;20299;-79
2021/03/09 13:45:35;;;;;;;4.37;2.50;;;10.10;99.90;;;;;;5015781;28;20240;-79
2021/03/09 13:48:20;;;;;;;3.37;1.70;;;10.10;99.90;;;;;;5017063;28;20208;-79
2021/03/09 13:51:05;;;;;;;4.90;2.20;;;10.00;99.90;;;;;;5015951;28;20211;-79
2021/03/09 13:53:51;;;;;;;2.67;1.90;;;9.90;99.90;;;;;;5017416;28;20284;-79
2021/03/09 13:56:36;;;;;;;4.17;2.20;;;9.80;99.90;;;;;;5017316;28;20231;-78
2021/03/09 13:59:21;;;;;;;3.13;2.40;;;9.70;99.90;;;;;;5017740;28;20261;-79
2021/03/09 14:02:05;;;;;;;5.50;4.20;;;9.70;99.90;;;;;;5015181;28;20240;-80
2021/03/09 14:04:50;;;;;;;12.17;6.00;;;9.60;99.90;;;;;;5017922;28;20239;-79
2021/03/09 14:07:35;;;;;;;9.20;6.63;;;9.50;99.90;;;;;;5018720;28;20232;-80
2021/03/09 14:10:21;;;;;;;5.80;3.90;;;9.40;99.90;;;;;;5027035;28;20221;-81
2021/03/09 14:13:07;;;;;;;12.10;5.00;;;9.30;99.90;;;;;;5019029;28;20212;-80
2021/03/09 14:15:52;;;;;;;6.17;2.77;;;9.30;99.90;;;;;;5018103;28;20239;-80
2021/03/09 14:18:36;;;;;;;4.27;3.07;;;9.20;99.90;;;;;;5017368;28;20215;-78
2021/03/09 14:21:21;;;;;;;3.10;2.60;;;9.20;99.90;;;;;;5022552;28;20936;-80